Main page
METAR-TAF:

METAR-TAF

Airports :

Dubai, United Arab Emirates

Al Maktoum International Airport

latitude: 24-53-49N, longitude: 55-09-40E, elevation: 35 m

Current weather observation

The report was made 1 hour and 3 minutes ago, at 01:00 UTC
Wind 5 kt from the Southeast
Temperature 29°C
Humidity 84%
Pressure 997 hPa
Visibility: 7000 m

METAR: OMDW 290100Z 13005KT 7000 NSC 29/26 Q0997 BECMG 4000 HZ

Time: 06:03 (02:03 UTC)

Forecast

The report was made 3 hours and 8 minutes ago, at 22:55 UTC
Forecast valid from 29 at 00 UTC to 30 at 06 UTC
Wind 7 kt from the East
Visibility: 8000 m
Probability 30%
from 29 at 00 UTC to 29 at 03 UTC
Visibility: 3000 m
haze
Probability 30% :
Temporary
from 29 at 06 UTC to 29 at 09 UTC
Wind 15 kt from the East with gusts up to 25 kt
Visibility: 4000 m
Blowing dust
Probability 40%
from 29 at 10 UTC to 29 at 15 UTC
Wind 10 kt from the North

TAF: OMDW 282255Z 2900/3006 09007KT 8000 NSC PROB30 2900/2903 3000 HZ PROB30 TEMPO 2906/2909 09015G25KT 4000 BLDU PROB40 2910/2915 36010KT

Weather observations and forecasts of more than 4000 airports (METAR and TAF reports).

The available stations are represented by yellow and red dots on the map.

Hover mouse over dot to see the name of the station.

Then click to see weather observations and forecasts.

To change the map : click on the green buttons with a black cross to zoom in, on the green button with a dash to zoom out, or on the green arrows for adjacent maps.


METAR-TAF: